createdAt,value
2023-02-09T00:02:20.158Z,-6.68
2023-02-09T00:04:48.032Z,-6.62
2023-02-09T00:07:15.769Z,-6.73
2023-02-09T00:09:43.308Z,-6.75
2023-02-09T00:12:11.314Z,-6.65
2023-02-09T00:14:40.722Z,-6.73
2023-02-09T00:17:10.426Z,-6.72
2023-02-09T00:19:38.847Z,-6.68
2023-02-09T00:22:06.627Z,-6.79
2023-02-09T00:24:34.512Z,-6.80
2023-02-09T00:27:02.866Z,-6.79
2023-02-09T00:29:30.965Z,-6.82
2023-02-09T00:31:59.936Z,-6.81
2023-02-09T00:34:27.775Z,-6.86
2023-02-09T00:36:58.066Z,-6.82
2023-02-09T00:39:25.843Z,-6.80
2023-02-09T00:41:53.503Z,-6.91
2023-02-09T00:44:21.648Z,-6.76
2023-02-09T00:46:51.851Z,-6.81
2023-02-09T00:49:21.499Z,-6.85
2023-02-09T00:51:49.231Z,-6.89
2023-02-09T00:54:16.773Z,-6.94
2023-02-09T00:56:45.599Z,-6.97
2023-02-09T00:59:13.286Z,-6.95
2023-02-09T01:01:45.887Z,-6.94
2023-02-09T01:04:13.661Z,-7.00
2023-02-09T01:06:43.579Z,-7.01
2023-02-09T01:09:11.322Z,-7.08
2023-02-09T01:11:39.146Z,-7.06
2023-02-09T01:14:09.704Z,-7.07
2023-02-09T01:16:40.901Z,-7.12
2023-02-09T01:19:12.558Z,-7.11
2023-02-09T01:21:50.606Z,-7.13
2023-02-09T01:24:20.284Z,-7.20
2023-02-09T01:26:47.855Z,-7.22
2023-02-09T01:29:19.904Z,-7.21
2023-02-09T01:31:52.443Z,-7.20
2023-02-09T01:34:26.341Z,-7.22
2023-02-09T01:36:58.654Z,-7.26
2023-02-09T01:39:30.138Z,-7.29
2023-02-09T01:42:01.301Z,-7.29
2023-02-09T01:45:09.033Z,-7.29
2023-02-09T01:47:47.175Z,-7.29
2023-02-09T01:50:19.152Z,-7.32
2023-02-09T01:52:48.985Z,-7.31
2023-02-09T01:55:22.574Z,-7.34
2023-02-09T01:57:59.681Z,-7.33
2023-02-09T02:00:30.493Z,-7.33
2023-02-09T02:03:03.766Z,-7.37
2023-02-09T02:05:34.157Z,-7.33
2023-02-09T02:08:06.378Z,-7.43
2023-02-09T02:10:34.551Z,-7.43
2023-02-09T02:13:03.403Z,-7.34
2023-02-09T02:15:39.676Z,-7.47
2023-02-09T02:18:21.064Z,-7.44
2023-02-09T02:21:18.974Z,-7.40
2023-02-09T02:24:01.645Z,-7.49
2023-02-09T02:26:44.914Z,-7.41
2023-02-09T02:29:39.950Z,-7.49
2023-02-09T02:32:20.293Z,-7.49
2023-02-09T02:34:57.986Z,-7.53
2023-02-09T02:37:37.395Z,-7.51
2023-02-09T02:40:16.570Z,-7.60
2023-02-09T02:42:51.939Z,-7.57
2023-02-09T02:45:32.988Z,-7.66
2023-02-09T02:48:10.244Z,-7.69
2023-02-09T02:50:44.909Z,-7.72
2023-02-09T02:53:15.029Z,-7.79
2023-02-09T02:55:45.814Z,-7.85
2023-02-09T02:58:16.878Z,-7.82
2023-02-09T03:00:49.013Z,-7.84
2023-02-09T03:03:20.951Z,-7.86
2023-02-09T03:05:49.920Z,-7.96
2023-02-09T03:08:17.649Z,-7.95
2023-02-09T03:10:46.316Z,-7.97
2023-02-09T03:13:37.954Z,-7.90
2023-02-09T03:16:21.042Z,-7.98
2023-02-09T03:19:03.756Z,-7.90
2023-02-09T03:21:42.048Z,-7.89
2023-02-09T03:24:17.314Z,-7.93
2023-02-09T03:26:52.118Z,-7.99
2023-02-09T03:29:22.213Z,-8.01
2023-02-09T03:31:50.952Z,-7.93
2023-02-09T03:34:20.457Z,-7.93
2023-02-09T03:36:51.162Z,-8.03
2023-02-09T03:39:18.741Z,-8.03
2023-02-09T03:41:46.758Z,-8.07
2023-02-09T03:44:14.533Z,-8.07
2023-02-09T03:46:42.072Z,-8.10
2023-02-09T03:49:10.138Z,-8.09
2023-02-09T03:51:39.346Z,-8.17
2023-02-09T03:54:06.895Z,-8.05
2023-02-09T03:56:34.821Z,-8.05
2023-02-09T03:59:02.475Z,-8.01
2023-02-09T04:01:30.291Z,-8.05
2023-02-09T04:03:58.130Z,-7.97
2023-02-09T04:06:25.843Z,-7.98
2023-02-09T04:08:55.681Z,-8.00
2023-02-09T04:11:24.185Z,-8.00
2023-02-09T04:13:53.000Z,-8.10
2023-02-09T04:16:22.996Z,-8.13
2023-02-09T04:18:50.737Z,-8.15
2023-02-09T04:21:18.704Z,-8.18
2023-02-09T04:23:46.732Z,-8.16
2023-02-09T04:26:16.214Z,-8.23
2023-02-09T04:28:43.890Z,-8.23
2023-02-09T04:31:11.568Z,-8.16
2023-02-09T04:33:39.627Z,-8.24
2023-02-09T04:36:09.167Z,-8.20
2023-02-09T04:38:37.263Z,-8.22
2023-02-09T04:41:05.941Z,-8.24
2023-02-09T04:43:35.151Z,-8.25
2023-02-09T04:46:03.163Z,-8.29
2023-02-09T04:48:32.201Z,-8.24
2023-02-09T04:50:59.817Z,-8.27
2023-02-09T04:53:27.491Z,-8.35
2023-02-09T04:55:55.252Z,-8.32
2023-02-09T04:58:23.009Z,-8.36
2023-02-09T05:00:54.603Z,-8.42
2023-02-09T05:03:24.599Z,-8.37
2023-02-09T05:05:55.382Z,-8.40
2023-02-09T05:08:24.196Z,-8.45
2023-02-09T05:10:52.183Z,-8.44
2023-02-09T05:13:20.943Z,-8.42
2023-02-09T05:15:49.448Z,-8.42
2023-02-09T05:18:18.437Z,-8.46
2023-02-09T05:20:48.000Z,-8.52
2023-02-09T05:23:16.519Z,-8.47
2023-02-09T05:25:44.042Z,-8.46
2023-02-09T05:28:11.765Z,-8.52
2023-02-09T05:30:39.843Z,-8.57
2023-02-09T05:33:07.840Z,-8.61
2023-02-09T05:35:37.023Z,-8.51
2023-02-09T05:38:05.108Z,-8.51
2023-02-09T05:40:32.774Z,-8.48
2023-02-09T05:43:00.392Z,-8.42
2023-02-09T05:45:28.086Z,-8.35
2023-02-09T05:47:56.415Z,-8.30
2023-02-09T05:50:24.116Z,-8.22
2023-02-09T05:52:54.664Z,-8.13
2023-02-09T05:55:22.546Z,-8.09
2023-02-09T05:57:50.224Z,-8.09
2023-02-09T06:00:19.846Z,-8.01
2023-02-09T06:02:47.399Z,-7.88
2023-02-09T06:05:15.234Z,-7.82
2023-02-09T06:07:43.008Z,-7.74
2023-02-09T06:10:12.079Z,-7.66
2023-02-09T06:12:41.461Z,-7.61
2023-02-09T06:15:10.189Z,-7.59
2023-02-09T06:17:37.864Z,-7.47
2023-02-09T06:20:06.857Z,-7.50
2023-02-09T06:22:34.640Z,-7.42
2023-02-09T06:25:02.256Z,-7.39
2023-02-09T06:27:31.473Z,-7.47
2023-02-09T06:29:59.140Z,-7.34
2023-02-09T06:32:26.693Z,-7.27
2023-02-09T06:34:54.356Z,-7.21
2023-02-09T06:37:22.305Z,-7.04
2023-02-09T06:39:49.857Z,-6.91
2023-02-09T06:42:17.499Z,-6.81
2023-02-09T06:44:46.653Z,-6.82
2023-02-09T06:47:14.143Z,-6.81
2023-02-09T06:49:41.966Z,-6.68
2023-02-09T06:52:09.722Z,-6.52
2023-02-09T06:54:38.602Z,-6.35
2023-02-09T06:57:06.482Z,-6.26
2023-02-09T06:59:34.774Z,-6.16
2023-02-09T07:02:04.574Z,-6.09
2023-02-09T07:04:33.003Z,-6.03
2023-02-09T07:07:03.513Z,-5.93
2023-02-09T07:09:31.315Z,-5.79
2023-02-09T07:11:59.914Z,-5.64
2023-02-09T07:14:27.629Z,-5.46
2023-02-09T07:16:55.170Z,-5.49
2023-02-09T07:19:24.281Z,-5.52
2023-02-09T07:21:51.991Z,-5.40
2023-02-09T07:24:20.018Z,-5.42
2023-02-09T07:26:47.723Z,-5.27
2023-02-09T07:29:15.618Z,-5.16
2023-02-09T07:31:43.400Z,-5.17
2023-02-09T07:34:11.164Z,-5.25
2023-02-09T07:36:40.311Z,-5.09
2023-02-09T07:39:08.079Z,-4.99
2023-02-09T07:41:35.988Z,-4.85
2023-02-09T07:44:03.727Z,-4.81
2023-02-09T07:46:31.450Z,-4.73
2023-02-09T07:49:01.360Z,-4.71
2023-02-09T07:51:29.743Z,-4.55
2023-02-09T07:53:59.764Z,-4.63
2023-02-09T07:56:27.618Z,-4.62
2023-02-09T07:58:56.138Z,-4.47
2023-02-09T08:01:25.694Z,-4.41
2023-02-09T08:03:53.608Z,-4.45
2023-02-09T08:06:30.407Z,-4.45
2023-02-09T08:09:06.849Z,-4.36
2023-02-09T08:11:38.107Z,-4.24
2023-02-09T08:14:10.190Z,-4.16
2023-02-09T08:16:38.738Z,-4.01
2023-02-09T08:19:11.813Z,-3.85
2023-02-09T08:21:43.208Z,-3.88
2023-02-09T08:24:14.601Z,-3.73
2023-02-09T08:26:42.198Z,-3.58
2023-02-09T08:29:10.795Z,-3.62
2023-02-09T08:31:38.557Z,-3.56
2023-02-09T08:34:06.885Z,-3.50
2023-02-09T08:36:34.703Z,-3.36
2023-02-09T08:39:03.508Z,-3.08
2023-02-09T08:41:33.716Z,-3.09
2023-02-09T08:44:01.703Z,-2.98
2023-02-09T08:46:30.367Z,-2.86
2023-02-09T08:48:58.145Z,-2.68
2023-02-09T08:51:25.951Z,-2.42
2023-02-09T08:53:53.606Z,-2.45
2023-02-09T08:56:22.516Z,-2.33
2023-02-09T08:58:51.708Z,-2.33
2023-02-09T09:01:19.679Z,-2.20
2023-02-09T09:03:47.358Z,-2.07
2023-02-09T09:06:15.423Z,-2.21
2023-02-09T09:08:43.349Z,-2.20
2023-02-09T09:11:11.467Z,-2.08
2023-02-09T09:13:39.967Z,-1.86
2023-02-09T09:16:17.107Z,-1.84
2023-02-09T09:18:45.132Z,-1.72
2023-02-09T09:21:13.109Z,-1.61
2023-02-09T09:23:40.674Z,-1.73
2023-02-09T09:26:08.345Z,-1.71
2023-02-09T09:28:36.140Z,-1.59
2023-02-09T09:31:07.582Z,-1.54
2023-02-09T09:33:38.331Z,-1.48
2023-02-09T09:36:07.114Z,-1.39
2023-02-09T09:38:35.661Z,-1.38
2023-02-09T09:41:04.180Z,-1.33
2023-02-09T09:43:34.992Z,-1.15
2023-02-09T09:46:04.434Z,-1.14
2023-02-09T09:48:41.301Z,-1.04
2023-02-09T09:51:13.002Z,-1.06
2023-02-09T09:53:44.204Z,-0.87
2023-02-09T09:56:14.926Z,-0.89
2023-02-09T09:58:44.116Z,-0.91
2023-02-09T10:01:13.013Z,-0.82
2023-02-09T10:03:42.670Z,-0.80
2023-02-09T10:06:16.892Z,-0.54
2023-02-09T10:08:52.045Z,-0.58
2023-02-09T10:11:24.984Z,-0.46
2023-02-09T10:13:54.552Z,-0.26
2023-02-09T10:16:24.399Z,-0.31
2023-02-09T10:19:00.887Z,-0.29
2023-02-09T10:21:31.370Z,-0.42
2023-02-09T10:24:12.696Z,-0.43
2023-02-09T10:26:40.841Z,-0.38
2023-02-09T10:29:24.633Z,-0.30
2023-02-09T10:31:57.264Z,-0.28
2023-02-09T10:34:32.332Z,-0.26
2023-02-09T10:37:17.137Z,-0.12
2023-02-09T10:39:47.788Z,0.12
2023-02-09T10:42:19.731Z,0.26
2023-02-09T10:44:50.115Z,0.11
2023-02-09T10:47:29.902Z,0.05
2023-02-09T10:50:06.413Z,0.20
2023-02-09T10:52:37.183Z,0.18
2023-02-09T10:55:15.475Z,0.24
2023-02-09T10:57:43.141Z,0.35
2023-02-09T11:00:29.055Z,0.38
2023-02-09T11:02:59.783Z,0.50
2023-02-09T11:05:32.512Z,0.46
2023-02-09T11:08:11.501Z,0.47
2023-02-09T11:10:45.436Z,0.59
2023-02-09T11:13:22.418Z,0.74
2023-02-09T11:16:28.328Z,0.71
2023-02-09T11:19:04.243Z,0.77
2023-02-09T11:21:51.674Z,0.75
2023-02-09T11:24:30.983Z,0.80
2023-02-09T11:27:05.781Z,0.86
2023-02-09T11:29:40.877Z,0.90
2023-02-09T11:32:19.716Z,1.04
2023-02-09T11:35:08.053Z,1.08
2023-02-09T11:37:46.584Z,1.10
2023-02-09T11:40:23.029Z,1.15
2023-02-09T11:42:59.399Z,1.05
2023-02-09T11:45:32.486Z,1.07
2023-02-09T11:48:06.257Z,1.23
2023-02-09T11:50:41.215Z,1.20
2023-02-09T11:53:20.768Z,1.20
2023-02-09T11:55:52.324Z,1.20
2023-02-09T11:58:38.773Z,1.33
2023-02-09T12:01:16.818Z,1.20
2023-02-09T12:03:57.087Z,1.22
2023-02-09T12:06:27.368Z,1.28
2023-02-09T12:09:03.325Z,1.35
2023-02-09T12:11:41.435Z,1.36
2023-02-09T12:14:35.251Z,1.31
2023-02-09T12:17:11.734Z,1.28
2023-02-09T12:19:43.829Z,1.35
2023-02-09T12:22:49.721Z,1.43
2023-02-09T12:25:35.546Z,1.43
2023-02-09T12:28:36.761Z,1.41
2023-02-09T12:31:07.939Z,1.41
2023-02-09T12:33:37.010Z,1.53
2023-02-09T12:36:20.965Z,1.53
2023-02-09T12:39:24.362Z,1.44
2023-02-09T12:42:26.422Z,1.49
2023-02-09T12:44:56.944Z,1.42
2023-02-09T12:47:45.363Z,1.56
2023-02-09T12:50:24.910Z,1.54
2023-02-09T12:53:34.418Z,1.49
2023-02-09T12:56:22.277Z,1.44
2023-02-09T12:59:16.325Z,1.45
2023-02-09T13:02:21.931Z,1.32
2023-02-09T13:04:58.677Z,1.32
2023-02-09T13:07:35.424Z,1.34
2023-02-09T13:10:14.818Z,1.47
2023-02-09T13:12:48.907Z,1.32
2023-02-09T13:15:19.715Z,1.32
2023-02-09T13:18:02.506Z,1.32
2023-02-09T13:20:59.124Z,1.33
2023-02-09T13:23:33.412Z,1.25
2023-02-09T13:26:06.596Z,1.35
2023-02-09T13:28:34.682Z,1.32
2023-02-09T13:31:17.235Z,1.21
2023-02-09T13:33:52.444Z,1.19
2023-02-09T13:36:30.380Z,1.27
2023-02-09T13:38:58.411Z,1.26
2023-02-09T13:41:34.727Z,1.16
2023-02-09T13:44:03.078Z,1.21
2023-02-09T13:46:33.121Z,1.19
2023-02-09T13:49:11.820Z,1.25
2023-02-09T13:51:39.529Z,1.18
2023-02-09T13:54:07.553Z,1.08
2023-02-09T13:56:37.763Z,1.02
2023-02-09T13:59:05.840Z,1.05
2023-02-09T14:01:36.812Z,1.10
2023-02-09T14:04:11.270Z,1.03
2023-02-09T14:06:42.952Z,1.10
2023-02-09T14:09:17.100Z,1.02
2023-02-09T14:11:48.272Z,0.90
2023-02-09T14:14:22.395Z,0.71
2023-02-09T14:17:24.251Z,0.81
2023-02-09T14:19:54.026Z,0.80
2023-02-09T14:22:30.372Z,0.72
2023-02-09T14:24:58.132Z,0.66
2023-02-09T14:27:27.570Z,0.64
2023-02-09T14:29:56.303Z,0.59
2023-02-09T14:32:34.059Z,0.58
2023-02-09T14:35:16.336Z,0.45
2023-02-09T14:37:44.892Z,0.36
2023-02-09T14:40:21.192Z,0.37
2023-02-09T14:43:03.722Z,0.26
2023-02-09T14:45:38.767Z,0.11
2023-02-09T14:48:22.276Z,-0.02
2023-02-09T14:50:53.203Z,-0.28
2023-02-09T14:53:23.155Z,-0.34
2023-02-09T14:55:51.453Z,-0.49
2023-02-09T14:58:21.214Z,-0.51
2023-02-09T15:00:49.768Z,-0.69
2023-02-09T15:03:17.975Z,-0.69
2023-02-09T15:05:48.247Z,-0.83
2023-02-09T15:08:19.324Z,-0.92
2023-02-09T15:10:49.014Z,-1.03
2023-02-09T15:13:16.687Z,-1.19
2023-02-09T15:15:48.793Z,-1.32
2023-02-09T15:18:19.250Z,-1.42
2023-02-09T15:20:49.009Z,-1.54
2023-02-09T15:23:17.092Z,-1.81
2023-02-09T15:25:45.611Z,-1.93
2023-02-09T15:28:18.693Z,-2.03
2023-02-09T15:30:46.672Z,-2.19
2023-02-09T15:33:14.856Z,-2.42
2023-02-09T15:35:42.545Z,-2.37
2023-02-09T15:38:14.941Z,-2.42
2023-02-09T15:40:45.474Z,-2.62
2023-02-09T15:43:15.375Z,-2.66
2023-02-09T15:45:43.036Z,-2.63
2023-02-09T15:48:11.090Z,-2.94
2023-02-09T15:50:41.168Z,-2.94
2023-02-09T15:53:14.749Z,-3.13
2023-02-09T15:55:43.368Z,-3.02
2023-02-09T15:58:13.810Z,-3.12
2023-02-09T16:00:41.891Z,-3.25
2023-02-09T16:03:14.719Z,-3.31
2023-02-09T16:05:42.795Z,-3.42
2023-02-09T16:08:17.731Z,-3.54
2023-02-09T16:10:46.748Z,-3.63
2023-02-09T16:13:34.454Z,-3.55
2023-02-09T16:16:15.060Z,-3.82
2023-02-09T16:18:44.801Z,-3.90
2023-02-09T16:21:20.266Z,-3.99
2023-02-09T16:23:49.933Z,-4.06
2023-02-09T16:26:17.542Z,-4.21
2023-02-09T16:28:45.355Z,-4.20
2023-02-09T16:31:13.161Z,-4.12
2023-02-09T16:33:40.709Z,-4.13
2023-02-09T16:36:13.907Z,-4.26
2023-02-09T16:38:41.703Z,-4.38
2023-02-09T16:41:13.298Z,-4.44
2023-02-09T16:43:40.930Z,-4.46
2023-02-09T16:46:11.168Z,-4.56
2023-02-09T16:48:42.013Z,-4.73
2023-02-09T16:51:13.114Z,-4.72
2023-02-09T16:53:45.189Z,-4.76
2023-02-09T16:56:15.193Z,-4.91
2023-02-09T16:58:43.119Z,-4.94
2023-02-09T17:01:14.442Z,-4.94
2023-02-09T17:03:43.868Z,-4.98
2023-02-09T17:09:21.797Z,-5.12
2023-02-09T17:11:49.688Z,-5.31
2023-02-09T17:14:17.399Z,-5.20
2023-02-09T17:16:46.340Z,-5.16
2023-02-09T17:19:17.123Z,-5.39
2023-02-09T17:21:45.210Z,-5.72
2023-02-09T17:24:16.006Z,-5.76
2023-02-09T17:26:45.320Z,-5.50
2023-02-09T17:29:12.885Z,-5.43
2023-02-09T17:31:52.786Z,-5.68
2023-02-09T17:34:22.072Z,-5.53
2023-02-09T17:36:49.943Z,-5.65
2023-02-09T17:39:18.147Z,-5.73
2023-02-09T17:41:47.849Z,-5.62
2023-02-09T17:44:32.025Z,-5.60
2023-02-09T17:47:05.644Z,-5.71
2023-02-09T17:49:33.395Z,-5.82
2023-02-09T17:52:01.264Z,-5.79
2023-02-09T17:54:29.244Z,-5.98
2023-02-09T17:56:58.446Z,-6.00
2023-02-09T17:59:26.160Z,-6.01
2023-02-09T18:01:54.208Z,-6.05
2023-02-09T18:04:23.520Z,-5.93
2023-02-09T18:06:51.238Z,-6.22
2023-02-09T18:09:19.114Z,-6.36
2023-02-09T18:12:00.962Z,-6.29
2023-02-09T18:14:31.784Z,-6.13
2023-02-09T18:16:59.520Z,-6.15
2023-02-09T18:19:27.774Z,-6.33
2023-02-09T18:21:57.676Z,-6.11
2023-02-09T18:24:27.717Z,-5.88
2023-02-09T18:26:55.774Z,-5.97
2023-02-09T18:29:25.368Z,-6.24
2023-02-09T18:31:53.224Z,-6.41
2023-02-09T18:34:21.205Z,-6.25
2023-02-09T18:36:48.987Z,-6.31
2023-02-09T18:39:17.108Z,-6.62
2023-02-09T18:41:44.855Z,-6.45
2023-02-09T18:44:12.545Z,-6.56
2023-02-09T18:46:42.341Z,-6.55
2023-02-09T18:49:12.042Z,-6.47
2023-02-09T18:51:40.099Z,-6.67
2023-02-09T18:54:08.074Z,-6.80
2023-02-09T18:56:35.807Z,-6.78
2023-02-09T18:59:04.270Z,-6.88
2023-02-09T19:01:32.096Z,-6.84
2023-02-09T19:04:01.893Z,-6.87
2023-02-09T19:06:29.763Z,-6.57
2023-02-09T19:08:57.895Z,-6.71
2023-02-09T19:11:26.103Z,-6.64
2023-02-09T19:13:53.986Z,-6.61
2023-02-09T19:16:21.716Z,-6.64
2023-02-09T19:18:49.488Z,-6.68
2023-02-09T19:21:18.514Z,-6.90
2023-02-09T19:23:46.233Z,-6.70
2023-02-09T19:26:14.294Z,-6.76
2023-02-09T19:28:41.824Z,-6.90
2023-02-09T19:31:11.159Z,-7.04
2023-02-09T19:33:38.799Z,-7.02
2023-02-09T19:36:07.287Z,-7.14
2023-02-09T19:38:36.358Z,-7.13
2023-02-09T19:41:10.831Z,-7.10
2023-02-09T19:43:39.239Z,-7.18
2023-02-09T19:46:07.721Z,-7.11
2023-02-09T19:48:35.337Z,-7.35
2023-02-09T19:51:03.055Z,-7.38
2023-02-09T19:53:30.923Z,-7.42
2023-02-09T19:56:00.467Z,-7.36
2023-02-09T19:58:28.185Z,-7.54
2023-02-09T20:00:55.823Z,-7.53
2023-02-09T20:03:23.725Z,-7.68
2023-02-09T20:05:51.999Z,-7.45
2023-02-09T20:08:20.514Z,-7.61
2023-02-09T20:10:48.371Z,-7.83
2023-02-09T20:13:17.881Z,-7.73
2023-02-09T20:15:46.777Z,-7.59
2023-02-09T20:18:16.017Z,-7.68
2023-02-09T20:20:45.890Z,-7.61
2023-02-09T20:23:13.744Z,-7.60
2023-02-09T20:25:42.531Z,-7.55
2023-02-09T20:28:10.662Z,-7.53
2023-02-09T20:30:42.180Z,-7.66
2023-02-09T20:33:09.844Z,-7.56
2023-02-09T20:35:39.400Z,-7.61
2023-02-09T20:38:09.945Z,-7.56
2023-02-09T20:40:41.776Z,-7.57
2023-02-09T20:43:10.396Z,-7.64
2023-02-09T20:45:39.675Z,-7.57
2023-02-09T20:48:08.800Z,-7.60
2023-02-09T20:50:36.348Z,-7.67
2023-02-09T20:53:04.766Z,-7.77
2023-02-09T20:55:32.478Z,-7.86
2023-02-09T20:58:00.155Z,-7.97
2023-02-09T21:00:28.213Z,-8.02
2023-02-09T21:02:55.848Z,-8.09
2023-02-09T21:05:24.838Z,-8.03
2023-02-09T21:07:52.691Z,-8.12
2023-02-09T21:10:20.836Z,-8.09
2023-02-09T21:12:49.243Z,-8.06
2023-02-09T21:15:16.938Z,-8.06
2023-02-09T21:17:44.843Z,-8.13
2023-02-09T21:20:12.718Z,-8.31
2023-02-09T21:22:42.004Z,-8.44
2023-02-09T21:25:11.482Z,-8.50
2023-02-09T21:27:39.193Z,-8.43
2023-02-09T21:30:07.514Z,-8.44
2023-02-09T21:32:35.217Z,-8.63
2023-02-09T21:35:02.779Z,-8.57
2023-02-09T21:37:30.857Z,-8.58
2023-02-09T21:39:59.977Z,-8.66
2023-02-09T21:42:27.704Z,-8.68
2023-02-09T21:44:55.690Z,-8.51
2023-02-09T21:47:25.494Z,-8.57
2023-02-09T21:49:53.169Z,-8.54
2023-02-09T21:52:21.106Z,-8.38
2023-02-09T21:54:48.818Z,-8.52
2023-02-09T21:57:18.151Z,-8.82
2023-02-09T21:59:46.175Z,-8.78
2023-02-09T22:02:15.499Z,-8.89
2023-02-09T22:04:45.000Z,-8.69
2023-02-09T22:07:14.133Z,-8.54
2023-02-09T22:09:42.030Z,-8.61
2023-02-09T22:12:09.646Z,-8.38
2023-02-09T22:14:39.156Z,-8.43
2023-02-09T22:17:07.488Z,-8.54
2023-02-09T22:19:37.073Z,-8.49
2023-02-09T22:22:05.048Z,-8.53
2023-02-09T22:24:33.172Z,-8.59
2023-02-09T22:27:01.357Z,-8.35
2023-02-09T22:29:29.563Z,-8.39
2023-02-09T22:31:59.172Z,-8.57
2023-02-09T22:34:26.695Z,-8.62
2023-02-09T22:36:54.563Z,-8.68
2023-02-09T22:39:22.856Z,-8.49
2023-02-09T22:41:54.337Z,-8.37
2023-02-09T22:44:22.073Z,-8.33
2023-02-09T22:46:49.649Z,-8.45
2023-02-09T22:49:20.508Z,-8.66
2023-02-09T22:51:49.351Z,-8.85
2023-02-09T22:54:19.004Z,-8.96
2023-02-09T22:56:46.902Z,-8.95
2023-02-09T22:59:15.426Z,-8.96
2023-02-09T23:01:43.505Z,-8.95
2023-02-09T23:04:11.713Z,-9.00
2023-02-09T23:06:40.871Z,-8.99
2023-02-09T23:09:08.913Z,-9.05
2023-02-09T23:11:36.596Z,-9.12
2023-02-09T23:14:12.177Z,-9.18
2023-02-09T23:16:41.683Z,-9.19
2023-02-09T23:19:11.930Z,-9.12
2023-02-09T23:21:43.511Z,-9.24
2023-02-09T23:24:12.705Z,-9.42
2023-02-09T23:26:40.672Z,-9.19
2023-02-09T23:29:10.495Z,-9.09
2023-02-09T23:31:39.445Z,-9.20
2023-02-09T23:34:07.493Z,-9.24
2023-02-09T23:36:35.515Z,-9.28
2023-02-09T23:39:06.226Z,-9.20
2023-02-09T23:41:35.055Z,-9.37
2023-02-09T23:44:03.894Z,-9.52
2023-02-09T23:46:31.697Z,-9.58
2023-02-09T23:48:59.783Z,-9.50
2023-02-09T23:51:29.300Z,-9.58
2023-02-09T23:53:58.367Z,-9.62
2023-02-09T23:56:33.183Z,-9.50
2023-02-09T23:59:00.820Z,-9.57
